createdAt,value
2023-05-08T00:00:12.926Z,13.21
2023-05-08T00:05:18.045Z,12.97
2023-05-08T00:10:21.558Z,13.04
2023-05-08T00:15:24.504Z,12.98
2023-05-08T00:20:29.011Z,12.99
2023-05-08T00:25:32.107Z,12.89
2023-05-08T00:30:35.034Z,12.87
2023-05-08T00:35:41.038Z,12.77
2023-05-08T00:40:43.975Z,12.74
2023-05-08T00:45:47.085Z,12.77
2023-05-08T00:50:52.775Z,12.73
2023-05-08T00:55:55.818Z,12.72
2023-05-08T01:00:59.422Z,12.69
2023-05-08T01:06:04.460Z,12.63
2023-05-08T01:11:29.397Z,12.65
2023-05-08T01:16:39.725Z,12.68
2023-05-08T01:21:51.596Z,12.61
2023-05-08T01:27:36.519Z,12.57
2023-05-08T01:32:43.453Z,12.51
2023-05-08T01:37:52.786Z,12.55
2023-05-08T01:43:07.197Z,12.45
2023-05-08T01:48:14.059Z,12.46
2023-05-08T01:53:23.909Z,12.48
2023-05-08T01:58:28.691Z,12.43
2023-05-08T02:03:35.097Z,12.36
2023-05-08T02:08:38.618Z,12.33
2023-05-08T02:13:43.409Z,12.33
2023-05-08T02:18:51.673Z,12.36
2023-05-08T02:23:57.190Z,12.30
2023-05-08T02:29:01.415Z,12.24
2023-05-08T02:34:11.185Z,12.24
2023-05-08T02:39:27.305Z,12.22
2023-05-08T02:44:35.622Z,12.21
2023-05-08T02:49:50.815Z,12.19
2023-05-08T02:55:07.211Z,12.19
2023-05-08T03:00:24.311Z,12.10
2023-05-08T03:05:35.832Z,12.08
2023-05-08T03:10:44.440Z,12.08
2023-05-08T03:15:54.655Z,12.03
2023-05-08T03:21:04.193Z,12.04
2023-05-08T03:26:13.660Z,12.01
2023-05-08T03:31:21.910Z,11.90
2023-05-08T03:36:29.560Z,11.79
2023-05-08T03:41:37.624Z,11.83
2023-05-08T03:46:46.879Z,11.82
2023-05-08T03:52:01.799Z,11.86
2023-05-08T03:57:07.676Z,11.85
2023-05-08T04:02:27.590Z,11.81
2023-05-08T04:07:42.201Z,11.82
2023-05-08T04:12:56.754Z,11.82
2023-05-08T04:18:08.913Z,11.87
2023-05-08T04:23:19.660Z,11.83
2023-05-08T04:28:28.681Z,11.81
2023-05-08T04:33:35.753Z,11.78
2023-05-08T04:38:44.375Z,11.76
2023-05-08T04:43:53.826Z,11.75
2023-05-08T04:49:06.507Z,11.71
2023-05-08T04:54:13.265Z,11.70
2023-05-08T04:59:21.815Z,11.73
2023-05-08T05:04:28.882Z,11.69
2023-05-08T05:09:39.837Z,11.69
2023-05-08T05:14:55.622Z,11.78
2023-05-08T05:20:01.481Z,11.89
2023-05-08T05:25:16.040Z,11.91
2023-05-08T05:30:21.918Z,11.78
2023-05-08T05:35:30.412Z,11.82
2023-05-08T05:40:43.646Z,11.85
2023-05-08T05:45:52.037Z,11.90
2023-05-08T05:51:04.144Z,11.97
2023-05-08T05:56:15.339Z,11.98
2023-05-08T06:01:23.265Z,12.04
2023-05-08T06:06:33.561Z,12.07
2023-05-08T06:11:45.823Z,12.05
2023-05-08T06:16:55.791Z,12.07
2023-05-08T06:22:05.644Z,12.05
2023-05-08T06:27:16.318Z,12.11
2023-05-08T06:32:23.282Z,12.11
2023-05-08T06:37:29.963Z,12.09
2023-05-08T06:42:40.889Z,12.03
2023-05-08T06:47:51.558Z,12.24
2023-05-08T06:53:04.830Z,12.37
2023-05-08T06:58:13.611Z,12.39
2023-05-08T07:03:23.166Z,12.57
2023-05-08T07:08:30.535Z,12.54
2023-05-08T07:13:36.723Z,12.67
2023-05-08T07:18:42.185Z,12.79
2023-05-08T07:23:52.382Z,12.87
2023-05-08T07:28:58.834Z,13.17
2023-05-08T07:34:06.987Z,13.20
2023-05-08T07:39:16.612Z,13.21
2023-05-08T07:44:31.752Z,13.11
2023-05-08T07:49:42.991Z,12.99
2023-05-08T07:54:51.636Z,13.30
2023-05-08T08:00:11.789Z,13.11
2023-05-08T08:05:20.100Z,12.92
2023-05-08T08:10:27.569Z,12.93
2023-05-08T08:15:37.895Z,12.91
2023-05-08T08:20:43.100Z,13.00
2023-05-08T08:25:52.758Z,13.12
2023-05-08T08:30:59.714Z,13.25
2023-05-08T08:36:12.255Z,13.32
2023-05-08T08:41:17.276Z,13.39
2023-05-08T08:46:31.938Z,13.41
2023-05-08T08:51:45.708Z,13.55
2023-05-08T08:56:52.877Z,13.61
2023-05-08T09:02:13.839Z,13.68
2023-05-08T09:07:23.655Z,13.87
2023-05-08T09:12:29.902Z,14.10
2023-05-08T09:17:45.661Z,14.39
2023-05-08T09:23:01.784Z,14.33
2023-05-08T09:28:20.471Z,14.63
2023-05-08T09:33:34.799Z,14.68
2023-05-08T09:38:50.211Z,14.78
2023-05-08T09:44:06.733Z,14.98
2023-05-08T09:49:23.958Z,15.31
2023-05-08T09:54:33.873Z,15.38
2023-05-08T09:59:43.388Z,15.45
2023-05-08T10:04:53.087Z,15.92
2023-05-08T10:10:11.323Z,16.38
2023-05-08T10:15:21.176Z,16.71
2023-05-08T10:20:32.884Z,16.80
2023-05-08T10:25:48.485Z,16.34
2023-05-08T10:31:03.548Z,16.39
2023-05-08T10:36:14.045Z,16.63
2023-05-08T10:41:20.942Z,17.22
2023-05-08T10:46:40.922Z,17.30
2023-05-08T10:51:59.106Z,17.79
2023-05-08T10:57:14.104Z,17.10
2023-05-08T11:02:45.331Z,16.43
2023-05-08T11:08:16.621Z,16.82
2023-05-08T11:13:32.211Z,16.66
2023-05-08T11:18:53.097Z,16.64
2023-05-08T11:24:17.226Z,16.65
2023-05-08T11:29:23.999Z,16.46
2023-05-08T11:34:53.415Z,16.50
2023-05-08T11:40:42.433Z,16.37
2023-05-08T11:45:52.272Z,16.60
2023-05-08T11:51:05.370Z,16.28
2023-05-08T11:56:50.322Z,15.93
2023-05-08T12:02:07.813Z,16.17
2023-05-08T12:07:18.657Z,15.94
2023-05-08T12:12:47.290Z,15.83
2023-05-08T12:18:09.041Z,15.72
2023-05-08T12:23:17.331Z,15.94
2023-05-08T12:28:35.302Z,15.93
2023-05-08T12:33:46.254Z,15.73
2023-05-08T12:39:13.471Z,15.90
2023-05-08T12:44:35.657Z,15.88
2023-05-08T12:49:49.684Z,16.11
2023-05-08T12:54:59.439Z,16.17
2023-05-08T13:00:10.211Z,16.40
2023-05-08T13:05:20.279Z,16.08
2023-05-08T13:10:35.111Z,16.65
2023-05-08T13:15:49.862Z,16.73
2023-05-08T13:20:58.965Z,17.22
2023-05-08T13:26:09.557Z,17.19
2023-05-08T13:31:27.804Z,17.17
2023-05-08T13:36:39.751Z,18.02
2023-05-08T13:41:51.026Z,18.35
2023-05-08T13:47:08.037Z,18.27
2023-05-08T13:52:20.871Z,18.92
2023-05-08T13:57:38.378Z,19.31
2023-05-08T14:02:53.439Z,20.02
2023-05-08T14:08:05.787Z,20.10
2023-05-08T14:13:11.625Z,19.72
2023-05-08T14:18:20.037Z,19.74
2023-05-08T14:23:25.142Z,19.90
2023-05-08T14:28:36.132Z,19.33
2023-05-08T14:33:57.354Z,19.52
2023-05-08T14:39:19.094Z,18.81
2023-05-08T14:44:34.832Z,19.01
2023-05-08T14:49:51.618Z,18.18
2023-05-08T14:54:59.834Z,18.46
2023-05-08T15:00:11.136Z,18.33
2023-05-08T15:05:19.997Z,17.78
2023-05-08T15:10:28.322Z,17.58
2023-05-08T15:15:37.414Z,17.83
2023-05-08T15:20:43.606Z,17.84
2023-05-08T15:25:54.654Z,17.63
2023-05-08T15:31:01.199Z,17.56
2023-05-08T15:36:14.358Z,17.65
2023-05-08T15:41:23.266Z,17.86
2023-05-08T15:46:31.082Z,17.63
2023-05-08T15:51:42.282Z,17.74
2023-05-08T15:56:48.431Z,18.29
2023-05-08T16:01:54.296Z,18.57
2023-05-08T16:07:08.741Z,19.11
2023-05-08T16:12:21.827Z,19.58
2023-05-08T16:17:29.183Z,23.67
2023-05-08T16:22:37.998Z,27.28
2023-05-08T16:27:43.239Z,29.14
2023-05-08T16:32:56.785Z,24.88
2023-05-08T16:38:03.383Z,22.49
2023-05-08T16:43:16.530Z,23.52
2023-05-08T16:48:29.459Z,26.92
2023-05-08T16:53:35.457Z,26.44
2023-05-08T16:58:40.688Z,25.49
2023-05-08T17:03:50.339Z,24.41
2023-05-08T17:08:55.078Z,24.04
2023-05-08T17:13:57.859Z,25.17
2023-05-08T17:19:01.515Z,25.52
2023-05-08T17:24:06.475Z,26.14
2023-05-08T17:29:09.365Z,22.73
2023-05-08T17:34:12.812Z,21.67
2023-05-08T17:39:21.881Z,20.99
2023-05-08T17:44:24.697Z,20.26
2023-05-08T17:49:27.622Z,19.77
2023-05-08T17:54:33.282Z,19.28
2023-05-08T17:59:36.151Z,18.64
2023-05-08T18:04:39.017Z,18.37
2023-05-08T18:09:43.631Z,18.33
2023-05-08T18:14:47.817Z,18.02
2023-05-08T18:19:50.593Z,17.75
2023-05-08T18:24:57.888Z,17.39
2023-05-08T18:30:00.768Z,17.26
2023-05-08T18:35:07.376Z,17.01
2023-05-08T18:40:13.126Z,16.83
2023-05-08T18:45:17.065Z,16.61
2023-05-08T18:50:20.395Z,16.41
2023-05-08T18:55:25.304Z,16.20
2023-05-08T19:00:28.980Z,16.05
2023-05-08T19:05:32.038Z,15.83
2023-05-08T19:10:36.979Z,15.55
2023-05-08T19:15:40.756Z,15.40
2023-05-08T19:20:43.673Z,15.24
2023-05-08T19:25:48.004Z,15.11
2023-05-08T19:30:50.771Z,15.04
2023-05-08T19:35:53.591Z,15.02
2023-05-08T19:40:58.106Z,14.98
2023-05-08T19:46:04.530Z,14.96
2023-05-08T19:51:07.894Z,14.98
2023-05-08T19:56:11.972Z,14.92
2023-05-08T20:01:14.730Z,14.84
2023-05-08T20:06:19.081Z,14.80
2023-05-08T20:11:23.268Z,14.73
2023-05-08T20:16:26.080Z,14.62
2023-05-08T20:21:32.147Z,14.59
2023-05-08T20:26:37.222Z,14.51
2023-05-08T20:31:40.915Z,14.42
2023-05-08T20:36:45.007Z,14.27
2023-05-08T20:41:50.426Z,14.18
2023-05-08T20:46:53.211Z,14.05
2023-05-08T20:51:56.771Z,13.95
2023-05-08T20:57:02.007Z,13.89
2023-05-08T21:02:05.068Z,13.82
2023-05-08T21:07:07.771Z,13.78
2023-05-08T21:12:12.060Z,13.76
2023-05-08T21:17:14.819Z,13.65
2023-05-08T21:22:17.959Z,13.61
2023-05-08T21:27:22.589Z,13.60
2023-05-08T21:32:26.047Z,13.63
2023-05-08T21:37:28.844Z,13.65
2023-05-08T21:42:34.116Z,13.61
2023-05-08T21:47:36.936Z,13.61
2023-05-08T21:52:39.720Z,13.62
2023-05-08T21:57:43.930Z,13.57
2023-05-08T22:02:46.913Z,13.55
2023-05-08T22:07:49.826Z,13.54
2023-05-08T22:12:54.121Z,13.51
2023-05-08T22:17:56.960Z,13.43
2023-05-08T22:22:59.720Z,13.36
2023-05-08T22:28:04.006Z,13.32
2023-05-08T22:33:06.843Z,13.26
2023-05-08T22:38:09.602Z,13.20
2023-05-08T22:43:13.718Z,13.13
2023-05-08T22:48:16.578Z,13.08
2023-05-08T22:53:19.307Z,13.04
2023-05-08T22:58:25.037Z,13.05
2023-05-08T23:03:27.808Z,13.01
2023-05-08T23:08:30.654Z,13.06
2023-05-08T23:13:34.713Z,13.05
2023-05-08T23:18:37.435Z,13.02
2023-05-08T23:23:40.166Z,13.00
2023-05-08T23:28:44.276Z,12.96
2023-05-08T23:33:47.048Z,12.96
2023-05-08T23:38:49.922Z,12.98
2023-05-08T23:43:54.765Z,13.03
2023-05-08T23:48:57.494Z,13.05
2023-05-08T23:54:00.330Z,13.08
2023-05-08T23:59:04.553Z,13.13
